The Little Minch, United Kingdom
Current Conditions -  °F | °C
As of 12:50 AM on Sunday 28 Dec 2014 (Local Time) from EGPL Reporting Station
Clear Clear  
Wind Chill:   Ceiling: Unl
Heat Index:   Visibility: 6mi
Dew Point:   Wind: 7mph
Humidity: 87%   Direction: 350°N
Pressure: 30.3"   Gusts: NA
Location:  57.5°N, 7°W
Report Text: EGPL 280050Z AUTO 35006KT 9000 NCD 03/01 Q1026
Loading
Personal Weather Stations






























Interactive Weather Map New forecast layout! Learn more

10-Day Weather Forecast

Advertisements
Track Severe Weather on mobile